Tropical Cyclones
[Index]
Main Index Home Page Stock Weather Photos Extreme Storms Discussion Storm News and Storm Chasing Reports Tropical Cyclones / Hurricanes / Typhoons Weather Data and Links Wild Fires / Bushfires Weather Observation Techniques Weather Picture Catalogue Tornado Pictures and Reports Stock Video Footage and DVDs for sale
Season 2014-2015 Tropical Cyclone 201515 Track Map
Season 2014-2015 Summaries: [BoM-AU] [JTWC-AU] [JTWC-SIO] [JTWC-SPAC] [JTWC-SH]
<<- Previous TC | JTWC 2014-2015 Season | Next TC ->>

click for intensity scale information  Lat/long Grid: Show Hide

 Date Labels: Show Hide

Joint Typhoon Warning Centre Cyclone Data

Name: 201515

04 Mar 2015 06:00 UTC to 09 Mar 2015 00:00 UTC

    date/time    lat    long     hPa   cat  kts
2015-03-04 06   14.1    41.9    1004         25          
2015-03-04 12   14.4    41.9    1004         25          
2015-03-04 18   14.7    41.9    1000         30          
2015-03-05 00   15.0    42.1    1000         30          
2015-03-05 06   15.4    42.2    1000         30          
2015-03-05 09   15.7    42.2    1000         30          
2015-03-05 12   16.0    42.1     996         35          
2015-03-05 18   16.4    42.1     996         35          
2015-03-06 00   16.6    41.8     996         35          
2015-03-06 06   16.5    41.4     996         35          
2015-03-06 12   16.5    41.3    1000         30          
2015-03-06 18   16.4    41.3    1000         30          
2015-03-07 00   16.4    41.4    1000         30          
2015-03-07 06   16.4    41.0    1000         30          
2015-03-07 09   16.5    40.9    1000         30          
2015-03-07 12   16.6    40.8    1004         25          
2015-03-07 18   16.6    41.3    1004         25          
2015-03-08 00   16.7    41.8    1004         25          
2015-03-08 06   16.9    42.4    1004         25          
2015-03-08 12   17.7    43.8    1004         25          
2015-03-08 18   18.3    44.4    1004         25          
2015-03-09 00   19.2    45.1    1004         25          
Winds are 1-min average.

Tropical cyclone tracks developed by Michael Bath using data from the Joint Typhoon Warning Centre Best Tracks and Google Maps.


[Australian Severe Weather index] [Copyright Notice] [Email Contacts] [Search This Site] [Privacy Policy]
Document: tropical_cyclone_201515.htm Updated: 28 June 2017